createdAt,value
2019-03-19T00:00:50.173Z,99.90
2019-03-19T00:03:18.728Z,99.90
2019-03-19T00:05:47.319Z,99.90
2019-03-19T00:08:15.872Z,99.90
2019-03-19T00:10:44.453Z,99.90
2019-03-19T00:13:32.348Z,99.90
2019-03-19T00:16:00.996Z,99.90
2019-03-19T00:18:29.556Z,99.90
2019-03-19T00:20:58.139Z,99.90
2019-03-19T00:23:26.697Z,99.90
2019-03-19T00:25:55.288Z,99.90
2019-03-19T00:28:23.847Z,99.90
2019-03-19T00:30:52.428Z,99.90
2019-03-19T00:33:20.992Z,99.90
2019-03-19T00:36:08.910Z,99.90
2019-03-19T00:38:37.467Z,99.90
2019-03-19T00:41:25.385Z,99.90
2019-03-19T00:43:53.933Z,99.90
2019-03-19T00:46:22.528Z,99.90
2019-03-19T00:48:51.150Z,99.90
2019-03-19T00:51:19.740Z,99.90
2019-03-19T00:53:48.304Z,99.90
2019-03-19T00:56:16.894Z,99.90
2019-03-19T00:58:45.454Z,99.90
2019-03-19T01:01:14.040Z,99.90
2019-03-19T01:03:55.160Z,99.90
2019-03-19T01:06:35.902Z,99.90
2019-03-19T01:09:06.569Z,99.90
2019-03-19T01:11:35.166Z,99.90
2019-03-19T01:14:03.725Z,99.90
2019-03-19T01:16:51.652Z,99.90
2019-03-19T01:19:39.550Z,99.90
2019-03-19T01:22:08.136Z,99.90
2019-03-19T01:24:36.692Z,99.90
2019-03-19T01:27:24.652Z,99.90
2019-03-19T01:29:53.214Z,99.90
2019-03-19T01:32:21.805Z,99.90
2019-03-19T01:34:50.360Z,99.90
2019-03-19T01:37:19.021Z,99.90
2019-03-19T01:40:10.834Z,99.90
2019-03-19T01:42:58.765Z,99.90
2019-03-19T01:45:27.353Z,99.90
2019-03-19T01:47:55.914Z,99.90
2019-03-19T01:50:24.470Z,99.90
2019-03-19T01:52:53.059Z,99.90
2019-03-19T01:55:21.793Z,99.90
2019-03-19T01:58:09.712Z,99.90
2019-03-19T02:00:38.322Z,99.90
2019-03-19T02:03:07.008Z,99.90
2019-03-19T02:05:54.939Z,99.90
2019-03-19T02:08:42.941Z,99.90
2019-03-19T02:11:11.532Z,99.90
2019-03-19T02:13:40.089Z,99.90
2019-03-19T02:16:08.752Z,99.90
2019-03-19T02:18:37.300Z,99.90
2019-03-19T02:21:05.898Z,99.90
2019-03-19T02:23:34.455Z,99.90
2019-03-19T02:26:03.045Z,99.90
2019-03-19T02:28:31.599Z,99.90
2019-03-19T02:31:00.189Z,99.90
2019-03-19T02:33:28.813Z,99.90
2019-03-19T02:35:57.369Z,99.90
2019-03-19T02:38:25.961Z,99.90
2019-03-19T02:40:54.526Z,99.90
2019-03-19T02:43:26.022Z,99.90
2019-03-19T02:45:54.581Z,99.90
2019-03-19T02:48:23.172Z,99.90
2019-03-19T02:51:11.092Z,99.90
2019-03-19T02:53:39.653Z,99.90
2019-03-19T02:56:08.209Z,99.90
2019-03-19T02:58:36.805Z,99.90
2019-03-19T03:01:05.495Z,99.90
2019-03-19T03:03:34.078Z,99.90
2019-03-19T03:06:02.629Z,99.90
2019-03-19T03:08:31.216Z,99.90
2019-03-19T03:10:59.791Z,99.90
2019-03-19T03:13:28.365Z,99.90
2019-03-19T03:15:56.989Z,99.90
2019-03-19T03:18:25.576Z,99.90
2019-03-19T03:20:54.136Z,99.90
2019-03-19T03:23:22.725Z,99.90
2019-03-19T03:25:51.284Z,99.90
2019-03-19T03:28:19.873Z,99.90
2019-03-19T03:30:48.434Z,99.90
2019-03-19T03:33:17.023Z,99.90
2019-03-19T03:35:45.581Z,99.90
2019-03-19T03:38:33.513Z,99.90
2019-03-19T03:41:03.720Z,99.90
2019-03-19T03:43:32.268Z,99.90
2019-03-19T03:46:00.868Z,99.90
2019-03-19T03:48:48.833Z,99.90
2019-03-19T03:51:17.416Z,99.90
2019-03-19T03:53:46.014Z,99.90
2019-03-19T03:56:14.635Z,99.90
2019-03-19T03:58:43.212Z,99.90
2019-03-19T04:01:11.841Z,99.90
2019-03-19T04:03:40.430Z,99.90
2019-03-19T04:06:09.118Z,99.90
2019-03-19T04:08:37.710Z,99.90
2019-03-19T04:11:06.254Z,99.90
2019-03-19T04:13:34.844Z,99.90
2019-03-19T04:16:03.411Z,99.90
2019-03-19T04:18:31.984Z,99.90
2019-03-19T04:21:19.881Z,99.90
2019-03-19T04:23:48.469Z,99.90
2019-03-19T04:26:17.137Z,99.90
2019-03-19T04:28:47.322Z,99.90
2019-03-19T04:31:15.952Z,99.90
2019-03-19T04:34:03.946Z,99.90
2019-03-19T04:36:32.501Z,99.90
2019-03-19T04:39:01.084Z,99.90
2019-03-19T04:41:29.639Z,99.90
2019-03-19T04:43:58.220Z,99.90
2019-03-19T04:46:26.776Z,99.90
2019-03-19T04:49:14.696Z,99.90
2019-03-19T04:51:43.253Z,99.90
2019-03-19T04:54:31.173Z,99.90
2019-03-19T04:56:59.728Z,99.90
2019-03-19T04:59:47.651Z,99.90
2019-03-19T05:02:35.548Z,99.90
2019-03-19T05:05:05.581Z,99.90
2019-03-19T05:07:34.130Z,99.90
2019-03-19T05:10:02.988Z,99.90
2019-03-19T05:12:50.888Z,99.90
2019-03-19T05:15:19.472Z,99.90
2019-03-19T05:17:48.023Z,99.90
2019-03-19T05:20:17.753Z,99.90
2019-03-19T05:22:46.376Z,99.90
2019-03-19T05:25:14.963Z,99.90
2019-03-19T05:27:43.593Z,99.90
2019-03-19T05:30:17.085Z,99.90
2019-03-19T05:32:45.711Z,99.90
2019-03-19T05:35:33.637Z,99.90
2019-03-19T05:38:02.223Z,99.90
2019-03-19T05:40:30.783Z,99.90
2019-03-19T05:42:59.336Z,99.90
2019-03-19T05:45:27.924Z,99.90
2019-03-19T05:47:56.490Z,99.90
2019-03-19T05:50:25.076Z,99.90
2019-03-19T05:52:53.636Z,99.90
2019-03-19T05:55:41.653Z,99.90
2019-03-19T05:58:10.208Z,99.90
2019-03-19T06:00:58.133Z,99.90
2019-03-19T06:03:26.695Z,99.90
2019-03-19T06:05:55.284Z,99.90
2019-03-19T06:08:23.845Z,99.90
2019-03-19T06:10:52.432Z,99.90
2019-03-19T06:13:20.983Z,99.90
2019-03-19T06:15:49.577Z,99.90
2019-03-19T06:18:18.127Z,99.90
2019-03-19T06:20:46.715Z,99.90
2019-03-19T06:23:15.278Z,99.90
2019-03-19T06:26:03.214Z,99.90
2019-03-19T06:28:31.765Z,99.90
2019-03-19T06:31:00.355Z,99.90
2019-03-19T06:33:28.906Z,99.90
2019-03-19T06:35:57.501Z,99.90
2019-03-19T06:38:26.075Z,99.90
2019-03-19T06:40:54.652Z,99.90
2019-03-19T06:43:23.212Z,99.90
2019-03-19T06:45:51.972Z,99.90
2019-03-19T06:48:22.891Z,99.90
2019-03-19T06:50:54.069Z,99.90
2019-03-19T06:53:22.748Z,99.90
2019-03-19T06:55:51.310Z,99.90
2019-03-19T06:58:19.877Z,99.90
2019-03-19T07:00:48.470Z,99.90
2019-03-19T07:03:17.603Z,99.90
2019-03-19T07:05:46.241Z,99.90
2019-03-19T07:08:14.801Z,99.90
2019-03-19T07:10:43.393Z,99.90
2019-03-19T07:13:31.298Z,99.90
2019-03-19T07:15:59.890Z,99.90
2019-03-19T07:18:28.456Z,99.90
2019-03-19T07:20:57.040Z,99.90
2019-03-19T07:23:25.687Z,99.90
2019-03-19T07:26:13.688Z,99.90
2019-03-19T07:28:42.266Z,99.90
2019-03-19T07:31:10.847Z,99.90
2019-03-19T07:33:39.416Z,99.90
2019-03-19T07:36:08.059Z,99.90
2019-03-19T07:38:36.587Z,99.90
2019-03-19T07:41:24.505Z,99.90
2019-03-19T07:43:53.065Z,99.90
2019-03-19T07:46:21.725Z,99.90
2019-03-19T07:48:50.276Z,99.90
2019-03-19T07:51:18.869Z,99.90
2019-03-19T07:53:47.421Z,99.90
2019-03-19T07:56:16.021Z,99.90
2019-03-19T07:58:45.679Z,99.90
2019-03-19T08:01:33.704Z,99.90
2019-03-19T08:04:02.337Z,99.90
2019-03-19T08:06:32.751Z,99.90
2019-03-19T08:09:01.140Z,99.90
2019-03-19T08:11:49.067Z,99.90
2019-03-19T08:14:17.637Z,99.90
2019-03-19T08:16:46.237Z,99.90
2019-03-19T08:19:14.792Z,99.90
2019-03-19T08:22:02.729Z,99.90
2019-03-19T08:24:31.275Z,99.90
2019-03-19T08:26:59.865Z,99.90
2019-03-19T08:29:29.731Z,99.90
2019-03-19T08:32:00.346Z,99.90
2019-03-19T08:34:28.909Z,99.90
2019-03-19T08:36:57.524Z,99.90
2019-03-19T08:39:26.254Z,99.90
2019-03-19T08:41:54.847Z,99.90
2019-03-19T08:44:27.674Z,99.90
2019-03-19T08:46:53.715Z,99.90
2019-03-19T08:49:22.457Z,99.90
2019-03-19T08:51:51.176Z,99.90
2019-03-19T08:54:19.730Z,99.90
2019-03-19T08:56:48.469Z,99.90
2019-03-19T08:59:17.033Z,99.90
2019-03-19T09:01:47.369Z,99.90
2019-03-19T09:04:16.064Z,99.90
2019-03-19T09:06:44.680Z,99.90
2019-03-19T09:09:13.240Z,99.90
2019-03-19T09:12:01.281Z,99.90
2019-03-19T09:14:49.157Z,99.90
2019-03-19T09:17:17.829Z,99.90
2019-03-19T09:19:46.389Z,99.90
2019-03-19T09:22:15.217Z,99.90
2019-03-19T09:24:43.908Z,99.90
2019-03-19T09:27:12.503Z,99.90
2019-03-19T09:29:41.069Z,99.90
2019-03-19T09:32:29.310Z,99.90
2019-03-19T09:34:57.878Z,99.90
2019-03-19T09:37:26.481Z,99.90
2019-03-19T09:40:15.168Z,99.90
2019-03-19T09:43:03.089Z,99.90
2019-03-19T09:45:31.653Z,99.90
2019-03-19T09:48:00.255Z,99.90
2019-03-19T09:50:28.816Z,99.90
2019-03-19T09:52:57.414Z,99.90
2019-03-19T09:55:26.044Z,99.90
2019-03-19T09:57:54.637Z,99.90
2019-03-19T10:00:23.932Z,99.90
2019-03-19T10:03:11.924Z,99.90
2019-03-19T10:05:40.484Z,99.90
2019-03-19T10:08:09.077Z,99.90
2019-03-19T10:10:37.739Z,99.90
2019-03-19T10:13:06.572Z,99.90
2019-03-19T10:15:35.129Z,99.90
2019-03-19T10:18:03.883Z,99.90
2019-03-19T10:20:32.435Z,99.90
2019-03-19T10:23:20.357Z,99.90
2019-03-19T10:25:48.981Z,99.90
2019-03-19T10:28:17.724Z,99.90
2019-03-19T10:30:46.471Z,99.90
2019-03-19T10:33:16.093Z,99.90
2019-03-19T10:35:44.889Z,99.90
2019-03-19T10:38:13.474Z,99.90
2019-03-19T10:41:02.548Z,99.90
2019-03-19T10:43:31.162Z,99.90
2019-03-19T10:45:59.911Z,99.90
2019-03-19T10:48:28.764Z,99.90
2019-03-19T10:50:58.260Z,99.90
2019-03-19T10:53:46.213Z,99.90
2019-03-19T10:56:14.767Z,99.90
2019-03-19T10:58:43.366Z,99.90
2019-03-19T11:01:31.262Z,99.90
2019-03-19T11:03:59.953Z,99.90
2019-03-19T11:06:29.409Z,99.90
2019-03-19T11:08:58.298Z,99.90
2019-03-19T11:11:28.414Z,99.90
2019-03-19T11:13:58.721Z,99.90
2019-03-19T11:16:27.351Z,99.90
2019-03-19T11:18:55.940Z,99.90
2019-03-19T11:21:28.844Z,99.90
2019-03-19T11:23:57.412Z,98.60
2019-03-19T11:26:25.976Z,99.00
2019-03-19T11:28:54.558Z,99.90
2019-03-19T11:31:23.113Z,97.70
2019-03-19T11:33:51.708Z,97.70
2019-03-19T11:36:20.825Z,98.20
2019-03-19T11:38:52.626Z,98.00
2019-03-19T11:41:21.193Z,98.20
2019-03-19T11:43:49.780Z,97.00
2019-03-19T11:46:18.580Z,98.50
2019-03-19T11:48:47.159Z,99.20
2019-03-19T11:51:18.984Z,99.60
2019-03-19T11:53:49.990Z,98.40
2019-03-19T11:56:18.679Z,97.60
2019-03-19T11:58:47.265Z,99.50
2019-03-19T12:01:16.170Z,96.90
2019-03-19T12:03:44.786Z,99.40
2019-03-19T12:06:13.377Z,98.00
2019-03-19T12:08:41.921Z,97.90
2019-03-19T12:11:10.552Z,98.60
2019-03-19T12:13:39.156Z,97.90
2019-03-19T12:16:07.785Z,97.60
2019-03-19T12:18:36.405Z,98.60
2019-03-19T12:21:05.107Z,99.00
2019-03-19T12:23:33.721Z,97.60
2019-03-19T12:26:21.622Z,97.40
2019-03-19T12:28:50.208Z,96.60
2019-03-19T12:31:18.763Z,97.90
2019-03-19T12:33:47.352Z,97.30
2019-03-19T12:36:15.916Z,94.40
2019-03-19T12:38:44.517Z,94.70
2019-03-19T12:41:13.074Z,94.70
2019-03-19T12:43:41.685Z,94.90
2019-03-19T12:46:10.242Z,97.20
2019-03-19T12:48:38.832Z,97.50
2019-03-19T12:51:07.388Z,97.10
2019-03-19T12:53:35.978Z,96.40
2019-03-19T12:56:04.778Z,96.20
2019-03-19T12:58:33.428Z,96.50
2019-03-19T13:01:02.011Z,96.00
2019-03-19T13:03:30.588Z,95.40
2019-03-19T13:05:59.144Z,94.50
2019-03-19T13:08:27.744Z,93.70
2019-03-19T13:11:15.709Z,94.00
2019-03-19T13:13:44.308Z,93.80
2019-03-19T13:16:24.673Z,93.70
2019-03-19T13:18:53.263Z,92.30
2019-03-19T13:21:21.838Z,91.30
2019-03-19T13:24:09.778Z,92.30
2019-03-19T13:26:38.330Z,93.40
2019-03-19T13:29:08.128Z,94.30
2019-03-19T13:31:56.021Z,94.80
2019-03-19T13:34:24.624Z,95.20
2019-03-19T13:36:53.514Z,94.70
2019-03-19T13:39:22.121Z,95.20
2019-03-19T13:41:50.676Z,95.70
2019-03-19T13:44:19.288Z,96.00
2019-03-19T13:46:47.848Z,95.50
2019-03-19T13:49:16.448Z,94.80
2019-03-19T13:51:45.009Z,96.20
2019-03-19T13:54:13.616Z,95.10
2019-03-19T13:56:42.168Z,93.60
2019-03-19T13:59:10.770Z,94.70
2019-03-19T14:01:39.386Z,92.10
2019-03-19T14:04:07.980Z,93.30
2019-03-19T14:06:55.881Z,92.60
2019-03-19T14:09:24.476Z,92.50
2019-03-19T14:11:53.106Z,92.30
2019-03-19T14:14:21.704Z,92.00
2019-03-19T14:16:50.328Z,92.80
2019-03-19T14:19:18.939Z,93.20
2019-03-19T14:21:47.496Z,93.00
2019-03-19T14:24:16.164Z,92.20
2019-03-19T14:26:44.724Z,90.10
2019-03-19T14:29:13.335Z,91.70
2019-03-19T14:31:41.885Z,91.70
2019-03-19T14:34:29.827Z,91.70
2019-03-19T14:36:59.144Z,91.70
2019-03-19T14:39:27.905Z,91.00
2019-03-19T14:41:56.524Z,90.70
2019-03-19T14:44:44.429Z,90.90
2019-03-19T14:47:13.026Z,91.00
2019-03-19T14:49:46.551Z,91.30
2019-03-19T14:52:11.833Z,88.00
2019-03-19T14:54:40.393Z,90.20
2019-03-19T14:57:08.993Z,90.10
2019-03-19T14:59:37.543Z,90.40
2019-03-19T15:02:06.292Z,91.00
2019-03-19T15:04:34.846Z,91.20
2019-03-19T15:07:03.453Z,91.20
2019-03-19T15:09:32.031Z,92.10
2019-03-19T15:12:00.796Z,90.80
2019-03-19T15:14:29.421Z,90.90
2019-03-19T15:17:17.362Z,91.10
2019-03-19T15:19:45.926Z,91.40
2019-03-19T15:22:14.593Z,91.90
2019-03-19T15:25:02.483Z,92.30
2019-03-19T15:27:31.087Z,90.60
2019-03-19T15:29:59.644Z,91.40
2019-03-19T15:32:28.250Z,91.40
2019-03-19T15:34:56.810Z,91.00
2019-03-19T15:37:25.416Z,90.30
2019-03-19T15:39:53.969Z,90.50
2019-03-19T15:42:22.527Z,90.50
2019-03-19T15:44:51.133Z,89.40
2019-03-19T15:47:19.689Z,90.00
2019-03-19T15:49:48.287Z,84.10
2019-03-19T15:52:16.916Z,83.40
2019-03-19T15:54:45.516Z,85.20
2019-03-19T15:57:14.084Z,87.70
2019-03-19T15:59:42.766Z,88.60
2019-03-19T16:02:11.316Z,87.90
2019-03-19T16:04:39.921Z,86.60
2019-03-19T16:07:08.478Z,85.50
2019-03-19T16:09:37.083Z,85.30
2019-03-19T16:12:05.642Z,86.20
2019-03-19T16:14:53.581Z,86.80
2019-03-19T16:17:22.129Z,86.50
2019-03-19T16:19:50.757Z,80.70
2019-03-19T16:22:19.314Z,80.80
2019-03-19T16:24:48.061Z,84.00
2019-03-19T16:27:16.688Z,84.20
2019-03-19T16:29:45.437Z,85.50
2019-03-19T16:32:15.096Z,84.40
2019-03-19T16:34:56.452Z,82.90
2019-03-19T16:37:25.012Z,83.40
2019-03-19T16:39:53.789Z,82.00
2019-03-19T16:42:22.268Z,84.00
2019-03-19T16:44:50.981Z,81.80
2019-03-19T16:47:38.883Z,81.50
2019-03-19T16:50:16.387Z,82.70
2019-03-19T16:53:04.277Z,87.80
2019-03-19T16:55:52.698Z,88.90
2019-03-19T16:58:21.387Z,88.60
2019-03-19T17:00:49.943Z,89.10
2019-03-19T17:03:18.668Z,90.00
2019-03-19T17:05:47.216Z,88.80
2019-03-19T17:08:35.297Z,90.70
2019-03-19T17:11:03.851Z,91.10
2019-03-19T17:13:32.544Z,92.90
2019-03-19T17:16:01.097Z,92.50
2019-03-19T17:18:29.809Z,94.40
2019-03-19T17:20:58.426Z,97.50
2019-03-19T17:23:27.190Z,98.80
2019-03-19T17:25:55.740Z,99.90
2019-03-19T17:28:24.468Z,99.90
2019-03-19T17:30:53.016Z,99.90
2019-03-19T17:33:21.589Z,99.90
2019-03-19T17:35:50.233Z,99.90
2019-03-19T17:38:18.784Z,99.90
2019-03-19T17:41:06.945Z,99.90
2019-03-19T17:43:54.980Z,99.90
2019-03-19T17:46:42.872Z,99.90
2019-03-19T17:49:11.609Z,99.90
2019-03-19T17:51:59.500Z,99.90
2019-03-19T17:54:47.505Z,99.90
2019-03-19T17:57:16.058Z,99.90
2019-03-19T17:59:44.857Z,99.90
2019-03-19T18:02:23.518Z,99.90
2019-03-19T18:04:43.773Z,99.90
2019-03-19T18:07:12.333Z,99.90
2019-03-19T18:10:00.462Z,99.90
2019-03-19T18:12:28.961Z,99.90
2019-03-19T18:14:57.672Z,99.90
2019-03-19T18:17:26.220Z,99.90
2019-03-19T18:19:55.040Z,99.90
2019-03-19T18:22:23.601Z,99.90
2019-03-19T18:24:52.305Z,99.90
2019-03-19T18:27:20.866Z,99.90
2019-03-19T18:30:10.476Z,99.90
2019-03-19T18:32:39.036Z,99.90
2019-03-19T18:35:07.797Z,99.90
2019-03-19T18:37:36.340Z,99.90
2019-03-19T18:40:24.442Z,99.90
2019-03-19T18:42:53.002Z,99.90
2019-03-19T18:45:41.099Z,99.90
2019-03-19T18:48:09.647Z,99.90
2019-03-19T18:50:57.729Z,99.90
2019-03-19T18:53:26.357Z,99.90
2019-03-19T18:55:55.097Z,99.90
2019-03-19T18:58:23.707Z,99.90
2019-03-19T19:00:52.473Z,99.90
2019-03-19T19:03:21.024Z,99.90
2019-03-19T19:05:49.748Z,99.90
2019-03-19T19:08:18.301Z,99.90
2019-03-19T19:10:47.015Z,99.90
2019-03-19T19:13:15.568Z,99.90
2019-03-19T19:15:44.288Z,99.90
2019-03-19T19:18:12.854Z,99.90
2019-03-19T19:20:41.555Z,99.90
2019-03-19T19:23:10.217Z,99.90
2019-03-19T19:25:38.932Z,99.90
2019-03-19T19:28:07.488Z,99.90
2019-03-19T19:30:36.200Z,99.90
2019-03-19T19:33:04.921Z,99.90
2019-03-19T19:35:33.677Z,99.90
2019-03-19T19:38:03.737Z,99.90
2019-03-19T19:40:32.688Z,99.90
2019-03-19T19:43:20.602Z,99.90
2019-03-19T19:45:49.314Z,99.90
2019-03-19T19:48:23.767Z,99.90
2019-03-19T19:50:52.524Z,99.90
2019-03-19T19:53:21.117Z,99.90
2019-03-19T19:55:49.891Z,99.90
2019-03-19T19:58:18.519Z,99.90
2019-03-19T20:00:47.271Z,99.90
2019-03-19T20:03:15.823Z,99.90
2019-03-19T20:05:44.659Z,99.90
2019-03-19T20:08:13.199Z,99.90
2019-03-19T20:10:41.883Z,99.90
2019-03-19T20:13:10.444Z,99.90
2019-03-19T20:15:39.184Z,99.90
2019-03-19T20:18:07.743Z,99.90
2019-03-19T20:20:36.460Z,99.90
2019-03-19T20:23:05.153Z,99.90
2019-03-19T20:25:33.829Z,99.90
2019-03-19T20:28:02.388Z,99.90
2019-03-19T20:30:31.206Z,99.90
2019-03-19T20:33:24.849Z,99.90
2019-03-19T20:36:08.728Z,99.90
2019-03-19T20:38:37.296Z,99.90
2019-03-19T20:41:06.084Z,99.90
2019-03-19T20:43:54.125Z,99.90
2019-03-19T20:46:22.752Z,99.90
2019-03-19T20:48:51.313Z,99.90
2019-03-19T20:51:19.915Z,99.90
2019-03-19T20:53:48.477Z,99.90
2019-03-19T20:56:29.796Z,99.90
2019-03-19T20:59:08.906Z,99.90
2019-03-19T21:01:37.512Z,99.90
2019-03-19T21:04:25.405Z,99.90
2019-03-19T21:06:54.011Z,99.90
2019-03-19T21:09:22.578Z,99.90
2019-03-19T21:11:53.278Z,99.90
2019-03-19T21:14:21.439Z,99.90
2019-03-19T21:16:50.044Z,99.90
2019-03-19T21:19:18.600Z,99.90
2019-03-19T21:21:47.199Z,99.90
2019-03-19T21:24:35.102Z,99.90
2019-03-19T21:27:03.780Z,99.90
2019-03-19T21:29:32.338Z,99.90
2019-03-19T21:32:20.308Z,99.90
2019-03-19T21:34:48.844Z,99.90
2019-03-19T21:37:17.446Z,99.90
2019-03-19T21:39:46.071Z,99.90
2019-03-19T21:42:14.672Z,99.90
2019-03-19T21:44:43.240Z,99.90
2019-03-19T21:47:31.172Z,99.90
2019-03-19T21:49:59.740Z,99.90
2019-03-19T21:52:28.339Z,99.90
2019-03-19T21:55:09.568Z,99.90
2019-03-19T21:57:38.176Z,99.90
2019-03-19T22:00:09.881Z,99.90
2019-03-19T22:02:38.487Z,99.90
2019-03-19T22:05:08.094Z,99.90
2019-03-19T22:07:36.766Z,99.90
2019-03-19T22:10:16.930Z,99.90
2019-03-19T22:12:45.682Z,99.90
2019-03-19T22:15:24.963Z,99.90
2019-03-19T22:18:12.944Z,99.90
2019-03-19T22:20:41.509Z,99.90
2019-03-19T22:23:29.452Z,99.90
2019-03-19T22:25:58.015Z,99.90
2019-03-19T22:28:26.681Z,99.90
2019-03-19T22:31:14.581Z,99.90
2019-03-19T22:33:43.188Z,99.90
2019-03-19T22:36:12.036Z,99.90
2019-03-19T22:38:40.720Z,99.90
2019-03-19T22:41:09.286Z,99.90
2019-03-19T22:43:37.892Z,99.90
2019-03-19T22:46:06.452Z,99.90
2019-03-19T22:48:35.051Z,99.90
2019-03-19T22:51:03.681Z,99.90
2019-03-19T22:53:32.277Z,99.90
2019-03-19T22:56:00.840Z,99.90
2019-03-19T22:58:29.442Z,99.90
2019-03-19T23:00:58.241Z,99.90
2019-03-19T23:03:46.255Z,99.90
2019-03-19T23:06:14.822Z,99.90
2019-03-19T23:08:43.421Z,99.90
2019-03-19T23:11:12.057Z,99.90
2019-03-19T23:13:40.659Z,99.90
2019-03-19T23:16:09.215Z,99.90
2019-03-19T23:18:37.819Z,99.90
2019-03-19T23:21:25.711Z,99.90
2019-03-19T23:23:54.313Z,99.90
2019-03-19T23:26:22.884Z,99.90
2019-03-19T23:28:54.492Z,99.90
2019-03-19T23:31:23.050Z,99.90
2019-03-19T23:33:51.656Z,99.90
2019-03-19T23:36:20.213Z,99.90
2019-03-19T23:38:48.815Z,99.90
2019-03-19T23:41:17.381Z,99.90
2019-03-19T23:43:45.977Z,99.90
2019-03-19T23:46:14.545Z,99.90
2019-03-19T23:48:43.145Z,99.90
2019-03-19T23:51:11.780Z,99.90
2019-03-19T23:53:40.385Z,99.90
2019-03-19T23:56:08.949Z,99.90
2019-03-19T23:58:37.552Z,99.90
